Time;durP1;ratioP1;P1;durP2;ratioP2;P2;SDS_P1;SDS_P2;PMS_P1;PMS_P2;Temp;Humidity;BMP_temperature;BMP_pressure;BME280_temperature;BME280_humidity;BME280_pressure;Samples;Min_cycle;Max_cycle;Signal;HPM_P1;HPM_P2
2022/08/12 00:44:22;;;;;;;4.97;2.83;;;;;;;;;;5075559;28;20035;-67
2022/08/12 00:46:53;;;;;;;8.45;2.70;;;;;;;;;;5075388;28;20020;-68
2022/08/12 00:49:22;;;;;;;4.75;2.67;;;;;;;;;;5075239;28;20424;-68
2022/08/12 00:52:05;;;;;;;3.60;2.40;;;;;;;;;;5075136;28;20020;-67
2022/08/12 00:54:31;;;;;;;3.15;2.28;;;;;;;;;;5075097;28;20064;-68
2022/08/12 00:56:58;;;;;;;4.22;2.55;;;;;;;;;;5075049;28;20029;-68
2022/08/12 00:59:24;;;;;;;3.97;2.53;;;;;;;;;;5075009;28;20078;-68
2022/08/12 01:01:51;;;;;;;4.15;2.40;;;;;;;;;;5074887;28;20020;-68
2022/08/12 01:12:38;;;;;;;3.63;2.45;;;;;;;;;;5074988;28;20031;-71
2022/08/12 01:15:05;;;;;;;3.42;2.35;;;;;;;;;;5074690;28;20082;-68
2022/08/12 01:17:31;;;;;;;3.10;2.55;;;;;;;;;;5074702;28;20021;-69
2022/08/12 01:19:59;;;;;;;2.72;2.50;;;;;;;;;;5073322;28;20364;-70
2022/08/12 01:22:34;;;;;;;4.93;2.55;;;;;;;;;;5074596;28;20025;-68
2022/08/12 01:25:03;;;;;;;4.22;2.10;;;;;;;;;;5074893;28;20458;-68
2022/08/12 01:27:29;;;;;;;2.90;2.40;;;;;;;;;;5074264;28;20030;-68
2022/08/12 01:29:56;;;;;;;2.53;2.10;;;;;;;;;;5074328;28;20012;-68
2022/08/12 01:32:26;;;;;;;2.80;2.20;;;;;;;;;;5074442;28;20484;-68
2022/08/12 01:35:04;;;;;;;5.00;2.60;;;;;;;;;;5087642;28;20085;-68
2022/08/12 01:37:33;;;;;;;3.70;2.42;;;;;;;;;;5074091;28;20067;-68
2022/08/12 01:40:02;;;;;;;3.80;2.72;;;;;;;;;;5074217;28;20066;-69
2022/08/12 01:42:30;;;;;;;3.97;2.60;;;;;;;;;;5073919;28;20025;-69
2022/08/12 01:44:57;;;;;;;2.78;2.40;;;;;;;;;;5073949;28;20129;-68
2022/08/12 01:47:23;;;;;;;3.72;2.53;;;;;;;;;;5074254;28;20032;-68
2022/08/12 01:50:00;;;;;;;6.82;2.88;;;;;;;;;;5074109;28;20016;-67
2022/08/12 01:52:30;;;;;;;3.20;2.67;;;;;;;;;;5074396;28;20473;-69
2022/08/12 01:54:57;;;;;;;3.97;2.53;;;;;;;;;;5073860;28;20036;-69
2022/08/12 01:57:38;;;;;;;3.15;2.38;;;;;;;;;;5073596;28;20035;-67
2022/08/12 02:00:15;;;;;;;4.93;2.20;;;;;;;;;;5073869;28;20035;-68
2022/08/12 02:02:41;;;;;;;4.38;2.70;;;;;;;;;;5073770;28;20065;-69
2022/08/12 02:11:21;;;;;;;2.58;2.28;;;;;;;;;;5073921;28;20055;-68
2022/08/12 02:13:54;;;;;;;3.97;2.80;;;;;;;;;;5073605;28;20017;-68
2022/08/12 02:16:55;;;;;;;3.50;2.67;;;;;;;;;;5073487;28;20021;-68
2022/08/12 02:19:40;;;;;;;2.88;2.60;;;;;;;;;;5049749;28;20028;-66
2022/08/12 02:22:21;;;;;;;3.90;2.60;;;;;;;;;;5051261;28;20037;-66
2022/08/12 02:24:48;;;;;;;3.95;2.50;;;;;;;;;;5051250;28;20047;-67
2022/08/12 02:27:15;;;;;;;3.05;2.47;;;;;;;;;;5051085;28;20052;-67
2022/08/12 02:29:41;;;;;;;3.08;2.78;;;;;;;;;;5051127;28;20013;-66
2022/08/12 02:32:08;;;;;;;3.35;2.50;;;;;;;;;;5051191;28;20079;-66
2022/08/12 02:34:34;;;;;;;3.47;2.42;;;;;;;;;;5030190;28;20493;-68
2022/08/12 02:37:01;;;;;;;3.55;2.50;;;;;;;;;;5050722;28;20053;-67
2022/08/12 02:39:29;;;;;;;2.90;2.33;;;;;;;;;;5050986;28;20041;-66
2022/08/12 02:41:57;;;;;;;2.65;2.25;;;;;;;;;;5050854;28;20494;-67
2022/08/12 02:44:25;;;;;;;4.85;2.60;;;;;;;;;;5050990;28;20037;-67
2022/08/12 02:46:55;;;;;;;4.05;2.63;;;;;;;;;;5050578;28;20045;-66
2022/08/12 02:49:29;;;;;;;3.67;2.13;;;;;;;;;;5024908;28;20052;-67
2022/08/12 02:51:55;;;;;;;2.58;2.00;;;;;;;;;;5047057;28;20029;-67
2022/08/12 02:54:22;;;;;;;3.95;2.40;;;;;;;;;;5071518;28;20399;-67
2022/08/12 02:56:48;;;;;;;5.18;2.28;;;;;;;;;;5072836;28;20433;-66
2022/08/12 02:59:15;;;;;;;3.53;2.70;;;;;;;;;;5072851;28;20024;-67
2022/08/12 03:01:52;;;;;;;3.10;2.30;;;;;;;;;;5073121;28;20033;-66
2022/08/12 03:04:38;;;;;;;5.18;2.50;;;;;;;;;;5072851;28;20020;-66
2022/08/12 03:07:31;;;;;;;3.80;2.50;;;;;;;;;;5065329;28;20044;-66
2022/08/12 03:10:01;;;;;;;6.60;2.55;;;;;;;;;;5070837;28;20036;-67
2022/08/12 03:12:28;;;;;;;2.93;2.67;;;;;;;;;;5072644;28;20023;-67
2022/08/12 03:14:55;;;;;;;2.88;2.20;;;;;;;;;;5072515;28;20032;-67
2022/08/12 03:17:30;;;;;;;6.53;2.80;;;;;;;;;;5072912;28;20028;-67
2022/08/12 03:19:56;;;;;;;2.60;2.40;;;;;;;;;;5072650;28;20056;-67
2022/08/12 03:22:23;;;;;;;3.47;2.22;;;;;;;;;;5071229;28;20580;-67
2022/08/12 03:24:50;;;;;;;5.15;2.72;;;;;;;;;;5072726;28;20025;-66
2022/08/12 03:27:16;;;;;;;5.40;2.72;;;;;;;;;;5072470;28;20016;-66
2022/08/12 03:29:46;;;;;;;5.05;2.58;;;;;;;;;;5072358;28;20028;-66
2022/08/12 03:32:13;;;;;;;4.93;2.72;;;;;;;;;;5072619;28;20019;-66
2022/08/12 03:34:40;;;;;;;3.88;2.30;;;;;;;;;;5086443;28;20051;-67
2022/08/12 03:37:09;;;;;;;4.38;2.63;;;;;;;;;;5072543;28;20048;-66
2022/08/12 03:42:25;;;;;;;4.28;2.78;;;;;;;;;;5072283;28;20393;-66
2022/08/12 04:01:50;;;;;;;4.15;2.90;;;;;;;;;;5076330;28;20035;-67
2022/08/12 04:04:16;;;;;;;5.13;2.97;;;;;;;;;;5076041;28;20055;-67
2022/08/12 04:06:47;;;;;;;8.98;3.10;;;;;;;;;;5075959;28;20391;-67
2022/08/12 04:09:13;;;;;;;4.60;2.90;;;;;;;;;;5075881;28;20119;-67
2022/08/12 04:14:25;;;;;;;5.20;2.80;;;;;;;;;;5075684;28;20129;-67
2022/08/12 04:16:51;;;;;;;4.90;2.60;;;;;;;;;;5075996;28;20024;-67
2022/08/12 04:19:18;;;;;;;4.35;2.50;;;;;;;;;;5075574;28;20521;-67
2022/08/12 04:21:45;;;;;;;4.78;2.83;;;;;;;;;;5075691;28;20481;-67
2022/08/12 04:24:11;;;;;;;4.47;2.80;;;;;;;;;;5075429;28;20029;-67
2022/08/12 04:26:40;;;;;;;7.15;2.88;;;;;;;;;;5075596;28;20025;-67
2022/08/12 04:29:09;;;;;;;3.72;2.72;;;;;;;;;;5089622;28;20027;-69
2022/08/12 04:31:39;;;;;;;6.25;2.97;;;;;;;;;;5075568;28;20035;-69
2022/08/12 04:34:06;;;;;;;4.43;2.80;;;;;;;;;;5085407;28;20419;-67
2022/08/12 04:36:33;;;;;;;5.28;2.85;;;;;;;;;;5079386;28;20419;-68
2022/08/12 04:38:59;;;;;;;8.18;3.40;;;;;;;;;;5075367;28;20017;-69
2022/08/12 04:41:26;;;;;;;9.20;4.60;;;;;;;;;;5075132;28;20063;-68
2022/08/12 04:43:52;;;;;;;4.47;3.63;;;;;;;;;;5075463;28;20009;-69
2022/08/12 04:46:19;;;;;;;15.32;9.10;;;;;;;;;;5075205;28;20137;-68
2022/08/12 04:48:45;;;;;;;6.72;3.67;;;;;;;;;;5075220;28;20142;-69
2022/08/12 04:51:12;;;;;;;4.30;3.67;;;;;;;;;;5075158;28;20169;-69
2022/08/12 04:53:39;;;;;;;6.95;4.50;;;;;;;;;;5074808;28;20043;-69
2022/08/12 04:56:05;;;;;;;8.50;4.05;;;;;;;;;;5074977;28;20078;-69
2022/08/12 04:58:33;;;;;;;8.77;5.68;;;;;;;;;;5074868;28;20025;-67
2022/08/12 05:01:00;;;;;;;7.85;3.80;;;;;;;;;;5075146;28;20513;-69
2022/08/12 05:03:26;;;;;;;5.50;3.92;;;;;;;;;;5074961;28;20588;-69
2022/08/12 05:05:52;;;;;;;6.90;3.60;;;;;;;;;;5089422;28;20082;-69
2022/08/12 05:08:18;;;;;;;4.25;3.35;;;;;;;;;;5074712;28;20028;-68
2022/08/12 05:10:45;;;;;;;11.27;3.10;;;;;;;;;;5074750;28;20095;-67
2022/08/12 05:13:13;;;;;;;6.55;3.67;;;;;;;;;;5074660;28;20022;-68
2022/08/12 05:15:39;;;;;;;5.05;3.03;;;;;;;;;;5074526;28;20047;-69
2022/08/12 05:18:05;;;;;;;4.97;2.60;;;;;;;;;;5074591;28;20050;-69
2022/08/12 05:20:32;;;;;;;7.15;3.85;;;;;;;;;;5074545;28;20032;-69
2022/08/12 05:23:08;;;;;;;7.05;3.20;;;;;;;;;;5074723;28;20031;-68
2022/08/12 05:25:34;;;;;;;6.30;3.03;;;;;;;;;;5074412;28;20029;-69
2022/08/12 05:28:00;;;;;;;14.35;5.35;;;;;;;;;;5074330;28;20422;-69
2022/08/12 05:30:27;;;;;;;5.18;4.45;;;;;;;;;;5074473;28;20048;-69
2022/08/12 05:32:56;;;;;;;6.95;3.42;;;;;;;;;;5073044;28;20025;-69
2022/08/12 05:35:22;;;;;;;5.55;3.70;;;;;;;;;;5074305;28;20044;-69
2022/08/12 05:38:54;;;;;;;5.57;3.92;;;;;;;;;;5074095;28;20029;-69
2022/08/12 05:40:35;;;;;;;4.80;3.50;;;;;;;;;;5074188;28;20083;-69
2022/08/12 05:43:01;;;;;;;6.63;3.20;;;;;;;;;;5074143;28;20021;-69
2022/08/12 05:45:27;;;;;;;7.47;4.00;;;;;;;;;;5073913;28;20029;-69
2022/08/12 05:47:53;;;;;;;8.65;3.67;;;;;;;;;;5073980;28;20071;-69
2022/08/12 05:50:20;;;;;;;5.75;3.58;;;;;;;;;;5072624;28;20021;-69
2022/08/12 05:52:46;;;;;;;6.10;3.88;;;;;;;;;;5074133;28;20025;-69
2022/08/12 05:55:12;;;;;;;9.73;4.15;;;;;;;;;;5073700;28;20036;-69
2022/08/12 05:57:38;;;;;;;5.00;3.03;;;;;;;;;;5073815;28;20399;-69
2022/08/12 06:00:05;;;;;;;6.93;3.30;;;;;;;;;;5073601;28;20103;-69
2022/08/12 06:02:33;;;;;;;10.80;3.15;;;;;;;;;;5073402;28;20020;-70
2022/08/12 06:05:00;;;;;;;7.05;2.80;;;;;;;;;;5072191;28;20037;-69
2022/08/12 06:07:26;;;;;;;5.50;2.80;;;;;;;;;;5073432;28;20012;-69
2022/08/12 06:09:52;;;;;;;8.85;3.35;;;;;;;;;;5071755;28;20128;-68
2022/08/12 06:12:22;;;;;;;5.20;3.58;;;;;;;;;;5073117;28;20027;-69
2022/08/12 06:14:48;;;;;;;7.03;3.25;;;;;;;;;;5073190;28;20025;-70
2022/08/12 06:17:16;;;;;;;7.20;3.67;;;;;;;;;;5073196;28;20059;-69
2022/08/12 06:19:42;;;;;;;12.10;4.55;;;;;;;;;;5072993;28;20032;-69
2022/08/12 06:22:11;;;;;;;9.38;4.40;;;;;;;;;;5072959;28;20025;-69
2022/08/12 06:24:37;;;;;;;8.38;3.90;;;;;;;;;;5073245;28;20145;-67
2022/08/12 06:27:03;;;;;;;8.63;3.63;;;;;;;;;;5073074;28;20025;-69
2022/08/12 06:29:29;;;;;;;14.63;3.85;;;;;;;;;;5076961;28;20023;-67
2022/08/12 06:31:55;;;;;;;9.02;4.28;;;;;;;;;;5083663;28;20025;-67
2022/08/12 06:34:21;;;;;;;6.28;3.60;;;;;;;;;;5084983;28;20040;-67
2022/08/12 06:36:47;;;;;;;10.48;4.07;;;;;;;;;;5075020;28;20516;-67
2022/08/12 06:39:14;;;;;;;7.05;3.97;;;;;;;;;;5073052;28;20082;-67
2022/08/12 06:44:24;;;;;;;6.70;3.30;;;;;;;;;;5073272;28;20070;-66
2022/08/12 06:46:51;;;;;;;7.85;3.92;;;;;;;;;;5072956;28;20024;-65
2022/08/12 06:49:17;;;;;;;9.50;3.53;;;;;;;;;;5073313;28;20107;-65
2022/08/12 06:51:44;;;;;;;10.15;4.15;;;;;;;;;;5071510;28;20462;-66
2022/08/12 06:54:10;;;;;;;8.38;4.28;;;;;;;;;;5072917;28;20016;-66
2022/08/12 06:56:37;;;;;;;9.32;4.68;;;;;;;;;;5072746;28;20040;-67
2022/08/12 06:59:04;;;;;;;7.05;3.80;;;;;;;;;;5072633;28;20016;-66
2022/08/12 07:01:30;;;;;;;5.78;3.10;;;;;;;;;;5072879;28;20020;-67
2022/08/12 07:03:57;;;;;;;7.03;2.97;;;;;;;;;;5072399;28;20016;-66
2022/08/12 07:06:24;;;;;;;17.73;4.93;;;;;;;;;;5071296;28;20082;-66
2022/08/12 07:08:50;;;;;;;6.13;3.38;;;;;;;;;;5072551;28;20025;-66
2022/08/12 07:11:16;;;;;;;7.13;3.40;;;;;;;;;;5072702;28;20501;-66
2022/08/12 07:13:44;;;;;;;7.88;3.30;;;;;;;;;;5072600;28;20388;-67
2022/08/12 07:16:12;;;;;;;7.20;4.45;;;;;;;;;;5072581;28;20032;-67
2022/08/12 07:18:38;;;;;;;7.38;3.42;;;;;;;;;;5072548;28;20062;-67
2022/08/12 07:21:06;;;;;;;7.13;3.28;;;;;;;;;;5072406;28;20051;-67
2022/08/12 07:23:33;;;;;;;7.78;3.97;;;;;;;;;;5071381;28;20020;-67
2022/08/12 07:26:04;;;;;;;12.68;4.50;;;;;;;;;;5072472;28;20059;-67
2022/08/12 07:28:33;;;;;;;7.80;3.53;;;;;;;;;;5072509;28;20070;-67
2022/08/12 07:30:59;;;;;;;15.05;4.47;;;;;;;;;;5072319;28;20020;-66
2022/08/12 07:33:27;;;;;;;5.95;3.63;;;;;;;;;;5079050;28;20019;-67
2022/08/12 07:35:53;;;;;;;4.70;3.53;;;;;;;;;;5086344;28;20530;-67
2022/08/12 07:38:26;;;;;;;7.07;3.65;;;;;;;;;;5076500;28;20025;-68
2022/08/12 07:41:11;;;;;;;8.75;4.45;;;;;;;;;;5076528;28;20020;-67
2022/08/12 07:43:41;;;;;;;9.73;3.92;;;;;;;;;;5076244;28;20024;-67
2022/08/12 07:46:10;;;;;;;16.10;4.30;;;;;;;;;;5076426;28;20031;-68
2022/08/12 07:48:41;;;;;;;8.90;3.70;;;;;;;;;;5076035;28;20026;-68
2022/08/12 07:51:07;;;;;;;;;;;;;;;;;;5076625;28;20024;-68
2022/08/12 07:53:34;;;;;;;4.97;3.70;;;;;;;;;;5076033;28;19904;-68
2022/08/12 07:56:00;;;;;;;9.57;3.72;;;;;;;;;;5076213;28;20024;-68
2022/08/12 07:58:26;;;;;;;11.10;4.03;;;;;;;;;;5075723;28;20068;-68
2022/08/12 08:00:56;;;;;;;8.30;3.92;;;;;;;;;;5074330;28;20032;-68
2022/08/12 08:03:24;;;;;;;10.90;4.25;;;;;;;;;;5075999;28;20020;-68
2022/08/12 08:05:51;;;;;;;13.50;5.25;;;;;;;;;;5075941;28;20360;-68
2022/08/12 08:08:19;;;;;;;7.50;3.55;;;;;;;;;;5075933;28;20402;-66
2022/08/12 08:10:45;;;;;;;7.95;3.75;;;;;;;;;;5075709;28;20020;-67
2022/08/12 08:13:12;;;;;;;6.85;3.10;;;;;;;;;;5075600;28;20023;-68
2022/08/12 08:15:38;;;;;;;6.18;3.60;;;;;;;;;;5074370;28;20039;-68
2022/08/12 08:18:05;;;;;;;7.75;3.70;;;;;;;;;;5075584;28;20024;-68
2022/08/12 08:20:33;;;;;;;9.93;3.80;;;;;;;;;;5075742;28;20107;-68
2022/08/12 08:23:00;;;;;;;7.93;3.67;;;;;;;;;;5075725;28;20044;-68
2022/08/12 08:25:30;;;;;;;5.90;3.40;;;;;;;;;;5075674;28;20441;-68
2022/08/12 08:27:57;;;;;;;4.95;3.47;;;;;;;;;;5075161;28;20070;-68
2022/08/12 08:30:24;;;;;;;5.63;3.03;;;;;;;;;;5075447;28;20112;-68
2022/08/12 08:32:50;;;;;;;8.45;5.78;;;;;;;;;;5074285;28;20027;-68
2022/08/12 08:35:16;;;;;;;12.00;3.65;;;;;;;;;;5089410;28;20044;-68
2022/08/12 08:37:45;;;;;;;5.28;3.67;;;;;;;;;;5074065;28;20025;-68
2022/08/12 08:42:56;;;;;;;4.38;3.45;;;;;;;;;;5081271;28;20059;-68
2022/08/12 08:45:22;;;;;;;3.53;3.05;;;;;;;;;;5074086;28;20438;-68
2022/08/12 08:47:50;;;;;;;5.13;3.38;;;;;;;;;;5074215;28;20036;-68
2022/08/12 08:50:16;;;;;;;6.00;3.63;;;;;;;;;;5073870;28;20036;-69
2022/08/12 08:52:43;;;;;;;8.13;3.72;;;;;;;;;;5073961;28;20057;-69
2022/08/12 08:55:10;;;;;;;4.65;2.67;;;;;;;;;;5073607;28;20085;-68
2022/08/12 08:57:36;;;;;;;6.65;3.33;;;;;;;;;;5073759;28;20021;-68
2022/08/12 09:00:04;;;;;;;5.15;3.10;;;;;;;;;;5073804;28;20025;-68
2022/08/12 09:02:30;;;;;;;4.13;2.95;;;;;;;;;;5073640;28;20142;-68
2022/08/12 09:04:56;;;;;;;4.20;2.90;;;;;;;;;;5074010;28;20036;-68
2022/08/12 09:07:22;;;;;;;5.40;3.30;;;;;;;;;;5073645;28;20028;-68
2022/08/12 09:09:50;;;;;;;8.45;3.00;;;;;;;;;;5073511;28;20025;-68
2022/08/12 09:15:01;;;;;;;3.63;2.83;;;;;;;;;;5073996;28;20052;-68
2022/08/12 09:17:29;;;;;;;5.03;3.33;;;;;;;;;;5073446;28;20022;-67
2022/08/12 09:19:55;;;;;;;3.55;3.05;;;;;;;;;;5073871;28;20058;-67
2022/08/12 09:22:21;;;;;;;3.47;2.85;;;;;;;;;;5073838;28;20064;-69
2022/08/12 09:24:48;;;;;;;6.03;3.33;;;;;;;;;;5073379;28;20115;-68
2022/08/12 09:27:15;;;;;;;6.40;3.55;;;;;;;;;;5072451;28;20020;-68
2022/08/12 09:29:42;;;;;;;7.50;4.50;;;;;;;;;;5073245;28;20116;-68
2022/08/12 09:32:08;;;;;;;4.90;3.10;;;;;;;;;;5073326;28;20062;-68
2022/08/12 09:34:35;;;;;;;8.13;4.00;;;;;;;;;;5086910;28;20043;-68
2022/08/12 09:37:02;;;;;;;4.90;3.63;;;;;;;;;;5032530;28;1182932;-68
2022/08/12 09:39:31;;;;;;;6.22;3.60;;;;;;;;;;5074073;28;20390;-67
2022/08/12 09:47:28;;;;;;;6.45;4.85;;;;;;;;;;5074346;28;20035;-66
2022/08/12 09:49:54;;;;;;;7.70;3.88;;;;;;;;;;5072797;28;20062;-66
2022/08/12 09:52:21;;;;;;;5.18;3.42;;;;;;;;;;5073831;28;20055;-67
2022/08/12 09:54:47;;;;;;;6.95;4.43;;;;;;;;;;5073227;28;20059;-67
2022/08/12 09:57:23;;;;;;;7.28;4.22;;;;;;;;;;5073608;28;20021;-67
2022/08/12 09:59:49;;;;;;;9.93;4.03;;;;;;;;;;5073806;28;20031;-66
2022/08/12 10:02:15;;;;;;;9.35;4.13;;;;;;;;;;5073670;28;20025;-68
2022/08/12 10:04:47;;;;;;;5.05;3.60;;;;;;;;;;5073318;28;20025;-67
2022/08/12 10:07:13;;;;;;;8.40;3.08;;;;;;;;;;5087862;28;20036;-67
2022/08/12 10:09:39;;;;;;;8.77;4.03;;;;;;;;;;5073506;28;20024;-67
2022/08/12 10:14:50;;;;;;;8.40;4.60;;;;;;;;;;5073559;28;20406;-67
2022/08/12 10:17:21;;;;;;;11.10;4.78;;;;;;;;;;5073716;28;20035;-68
2022/08/12 10:19:47;;;;;;;7.28;4.05;;;;;;;;;;5072044;28;20394;-68
2022/08/12 10:22:14;;;;;;;9.52;4.88;;;;;;;;;;5073400;28;20032;-68
2022/08/12 10:24:41;;;;;;;6.95;4.80;;;;;;;;;;5073353;28;20103;-67
2022/08/12 10:29:52;;;;;;;6.25;3.53;;;;;;;;;;5073280;28;20035;-68
2022/08/12 10:32:20;;;;;;;10.00;5.60;;;;;;;;;;5071354;28;20132;-68
2022/08/12 10:34:47;;;;;;;7.38;3.40;;;;;;;;;;5086869;28;20115;-68
2022/08/12 10:37:14;;;;;;;5.32;4.00;;;;;;;;;;5072950;28;20048;-68
2022/08/12 10:39:40;;;;;;;7.53;3.72;;;;;;;;;;5073032;28;20028;-69
2022/08/12 10:44:52;;;;;;;4.60;3.20;;;;;;;;;;5073152;28;20044;-70
2022/08/12 10:47:19;;;;;;;5.82;3.67;;;;;;;;;;5072978;28;20020;-69
2022/08/12 10:49:46;;;;;;;8.55;4.32;;;;;;;;;;5073099;28;20074;-69
2022/08/12 10:52:12;;;;;;;5.47;4.22;;;;;;;;;;5072765;28;20025;-69
2022/08/12 10:54:39;;;;;;;5.90;4.00;;;;;;;;;;5072638;28;20060;-69
2022/08/12 10:57:05;;;;;;;4.93;3.30;;;;;;;;;;5072643;28;20054;-69
2022/08/12 10:59:31;;;;;;;7.95;3.72;;;;;;;;;;5072699;28;20051;-69
2022/08/12 11:02:00;;;;;;;7.60;3.90;;;;;;;;;;5072624;28;20032;-69
2022/08/12 11:04:29;;;;;;;6.13;3.30;;;;;;;;;;5073046;28;20028;-69
2022/08/12 11:06:55;;;;;;;5.30;3.40;;;;;;;;;;5072618;28;20040;-69
2022/08/12 11:09:31;;;;;;;8.93;4.20;;;;;;;;;;5072692;28;20028;-69
2022/08/12 11:11:59;;;;;;;13.13;8.98;;;;;;;;;;5072929;28;20069;-69
2022/08/12 11:14:32;;;;;;;12.30;4.03;;;;;;;;;;5086512;28;20036;-69
2022/08/12 11:16:59;;;;;;;10.02;3.78;;;;;;;;;;5072868;28;20020;-70
2022/08/12 11:19:25;;;;;;;6.63;4.22;;;;;;;;;;5072626;28;20039;-69
2022/08/12 11:21:52;;;;;;;4.40;3.80;;;;;;;;;;5072708;28;20033;-69
2022/08/12 11:24:19;;;;;;;10.27;3.83;;;;;;;;;;5072424;28;20013;-69
2022/08/12 11:26:45;;;;;;;7.18;4.15;;;;;;;;;;5072447;28;20020;-69
2022/08/12 11:29:11;;;;;;;10.55;3.67;;;;;;;;;;5072362;28;20020;-69
2022/08/12 11:31:37;;;;;;;5.70;3.45;;;;;;;;;;5072719;28;20398;-69
2022/08/12 11:34:03;;;;;;;6.32;5.10;;;;;;;;;;5081686;28;20059;-70
2022/08/12 11:36:30;;;;;;;4.75;3.78;;;;;;;;;;5077053;28;20052;-69
2022/08/12 11:38:56;;;;;;;7.95;5.28;;;;;;;;;;5072257;28;20025;-69
2022/08/12 11:41:22;;;;;;;5.50;3.42;;;;;;;;;;5072494;28;20567;-70
2022/08/12 11:43:48;;;;;;;7.38;3.70;;;;;;;;;;5072044;28;20021;-69
2022/08/12 11:46:14;;;;;;;5.18;3.95;;;;;;;;;;5072249;28;20032;-69
2022/08/12 11:48:40;;;;;;;8.05;4.82;;;;;;;;;;5072216;28;20074;-69
2022/08/12 11:51:07;;;;;;;10.30;4.00;;;;;;;;;;5072311;28;20016;-69
2022/08/12 11:53:33;;;;;;;5.22;4.25;;;;;;;;;;5072178;28;20024;-69
2022/08/12 11:55:59;;;;;;;4.93;3.50;;;;;;;;;;5071938;28;20031;-69
2022/08/12 11:58:26;;;;;;;5.55;4.18;;;;;;;;;;5072179;28;20102;-69
2022/08/12 12:00:52;;;;;;;6.38;3.47;;;;;;;;;;5072124;28;20021;-69
2022/08/12 12:03:18;;;;;;;6.45;4.03;;;;;;;;;;5072318;28;20063;-69
2022/08/12 12:05:44;;;;;;;5.80;3.80;;;;;;;;;;5072315;28;20063;-69
2022/08/12 12:08:23;;;;;;;9.98;5.15;;;;;;;;;;5072214;28;20108;-69
2022/08/12 12:10:50;;;;;;;8.30;4.03;;;;;;;;;;5071930;28;20021;-70
2022/08/12 12:13:17;;;;;;;10.20;5.93;;;;;;;;;;5072223;28;20029;-70
2022/08/12 12:15:43;;;;;;;6.45;4.20;;;;;;;;;;5071782;28;20032;-69
2022/08/12 12:18:28;;;;;;;6.38;3.78;;;;;;;;;;5072364;28;20530;-69
2022/08/12 12:20:56;;;;;;;8.98;3.75;;;;;;;;;;5075547;28;20059;-69
2022/08/12 12:23:22;;;;;;;5.47;4.10;;;;;;;;;;5075629;28;20090;-69
2022/08/12 12:25:48;;;;;;;13.98;12.75;;;;;;;;;;5075499;28;20031;-69
2022/08/12 12:28:14;;;;;;;6.68;4.45;;;;;;;;;;5075369;28;20075;-69
2022/08/12 12:30:41;;;;;;;13.57;6.78;;;;;;;;;;5075466;28;20379;-69
2022/08/12 12:33:07;;;;;;;4.90;4.32;;;;;;;;;;5076935;28;20020;-70
2022/08/12 12:35:34;;;;;;;6.38;4.38;;;;;;;;;;5087655;28;20040;-69
2022/08/12 12:38:01;;;;;;;13.07;4.53;;;;;;;;;;5075107;28;20493;-69
2022/08/12 12:40:28;;;;;;;10.48;6.60;;;;;;;;;;5075344;28;20069;-69
2022/08/12 12:42:54;;;;;;;11.07;6.88;;;;;;;;;;5075198;28;20073;-70
2022/08/12 12:45:21;;;;;;;5.93;4.80;;;;;;;;;;5075232;28;20021;-69
2022/08/12 12:47:56;;;;;;;8.02;6.00;;;;;;;;;;5075146;28;20028;-70
2022/08/12 12:50:22;;;;;;;7.32;4.60;;;;;;;;;;5075170;28;20073;-71
2022/08/12 12:52:49;;;;;;;7.72;4.28;;;;;;;;;;5075164;28;20021;-70
2022/08/12 12:55:15;;;;;;;10.93;6.47;;;;;;;;;;5075114;28;20493;-70
2022/08/12 12:57:41;;;;;;;5.65;4.22;;;;;;;;;;5075058;28;20024;-70
2022/08/12 13:00:13;;;;;;;10.30;5.93;;;;;;;;;;5075023;28;20494;-70
2022/08/12 13:02:41;;;;;;;7.63;4.75;;;;;;;;;;5075001;28;20474;-70
2022/08/12 13:05:07;;;;;;;8.85;4.60;;;;;;;;;;5074874;28;20103;-70
2022/08/12 13:07:42;;;;;;;5.93;4.13;;;;;;;;;;5074722;28;20025;-70
2022/08/12 13:10:08;;;;;;;8.35;4.43;;;;;;;;;;5074904;28;20025;-70
2022/08/12 13:12:35;;;;;;;7.53;4.30;;;;;;;;;;5074843;28;20024;-69
2022/08/12 13:15:02;;;;;;;6.65;4.90;;;;;;;;;;5074702;28;20032;-70
2022/08/12 13:17:31;;;;;;;5.00;4.50;;;;;;;;;;5074415;28;20032;-70
2022/08/12 13:20:03;;;;;;;6.35;3.92;;;;;;;;;;5074439;28;20044;-70
2022/08/12 13:22:29;;;;;;;9.85;4.65;;;;;;;;;;5074380;28;20078;-70
2022/08/12 13:24:58;;;;;;;8.27;5.25;;;;;;;;;;5074483;28;20463;-70
2022/08/12 13:27:46;;;;;;;5.28;4.15;;;;;;;;;;5074653;28;20115;-70
2022/08/12 13:30:14;;;;;;;7.35;4.07;;;;;;;;;;5073191;28;20055;-69
2022/08/12 13:32:45;;;;;;;6.43;4.20;;;;;;;;;;5072578;28;20462;-70
2022/08/12 13:35:15;;;;;;;7.53;3.85;;;;;;;;;;5088596;28;20039;-70
2022/08/12 13:37:41;;;;;;;7.47;4.50;;;;;;;;;;5074206;28;20074;-70
2022/08/12 13:40:09;;;;;;;6.57;4.28;;;;;;;;;;5074162;28;20055;-69
2022/08/12 13:42:38;;;;;;;8.55;4.78;;;;;;;;;;5074477;28;20064;-70
2022/08/12 13:45:05;;;;;;;8.93;5.13;;;;;;;;;;5074016;28;20025;-70
2022/08/12 13:47:54;;;;;;;10.80;6.70;;;;;;;;;;5074091;28;20027;-71
2022/08/12 13:50:20;;;;;;;10.45;5.25;;;;;;;;;;5073950;28;20028;-69
2022/08/12 13:52:46;;;;;;;6.35;5.00;;;;;;;;;;5073820;28;20020;-69
2022/08/12 13:55:12;;;;;;;5.32;4.75;;;;;;;;;;5073977;28;20390;-70
2022/08/12 13:57:42;;;;;;;6.88;4.28;;;;;;;;;;5074164;28;20078;-70
2022/08/12 14:00:11;;;;;;;6.67;5.40;;;;;;;;;;5073723;28;20024;-70
2022/08/12 14:02:37;;;;;;;11.15;9.27;;;;;;;;;;5073845;28;20025;-70
2022/08/12 14:05:08;;;;;;;15.60;10.75;;;;;;;;;;5074061;28;20112;-70
2022/08/12 14:07:37;;;;;;;;;;;;;;;;;;5074332;28;20028;-70
2022/08/12 14:13:04;;;;;;;7.72;4.25;;;;;;;;;;5000189;28;20089;-67
2022/08/12 14:15:30;;;;;;;8.68;5.82;;;;;;;;;;5011501;28;20544;-68
2022/08/12 14:18:04;;;;;;;7.78;5.45;;;;;;;;;;5011681;28;20026;-68
2022/08/12 14:20:30;;;;;;;12.85;6.13;;;;;;;;;;5011819;28;20030;-68
2022/08/12 14:22:58;;;;;;;6.05;4.90;;;;;;;;;;5011313;28;20500;-68
2022/08/12 14:25:27;;;;;;;7.72;4.55;;;;;;;;;;5011620;28;20073;-68
2022/08/12 14:27:54;;;;;;;10.73;4.95;;;;;;;;;;5011564;28;20500;-68
2022/08/12 14:30:20;;;;;;;9.82;6.15;;;;;;;;;;5011344;28;20030;-68
2022/08/12 14:32:46;;;;;;;8.15;6.07;;;;;;;;;;5011323;28;20080;-68
2022/08/12 14:35:13;;;;;;;11.43;5.43;;;;;;;;;;5011067;28;20112;-67
2022/08/12 14:37:39;;;;;;;11.45;6.50;;;;;;;;;;5011158;28;20148;-68
2022/08/12 14:40:05;;;;;;;6.15;4.65;;;;;;;;;;5011224;28;20029;-69
2022/08/12 14:42:31;;;;;;;9.40;4.72;;;;;;;;;;5010882;28;20413;-69
2022/08/12 14:44:57;;;;;;;7.05;4.72;;;;;;;;;;5011197;28;20392;-67
2022/08/12 14:47:24;;;;;;;7.93;5.40;;;;;;;;;;4988209;28;20026;-68
2022/08/12 14:49:50;;;;;;;8.45;5.15;;;;;;;;;;5073106;28;20025;-68
2022/08/12 14:52:16;;;;;;;5.97;5.07;;;;;;;;;;5072578;28;20105;-69
2022/08/12 14:54:42;;;;;;;7.70;4.55;;;;;;;;;;5072858;28;20036;-69
2022/08/12 14:57:10;;;;;;;8.02;5.55;;;;;;;;;;5072974;28;20426;-68
2022/08/12 15:02:20;;;;;;;7.03;4.97;;;;;;;;;;5073000;28;20552;-68
2022/08/12 15:05:01;;;;;;;7.57;5.60;;;;;;;;;;5070929;28;20368;-68
2022/08/12 15:07:28;;;;;;;8.63;6.25;;;;;;;;;;5072810;28;20526;-68
2022/08/12 15:09:55;;;;;;;6.55;4.72;;;;;;;;;;5072613;28;20021;-68
2022/08/12 15:12:21;;;;;;;10.43;6.82;;;;;;;;;;5072930;28;20541;-68
2022/08/12 15:14:47;;;;;;;5.28;4.50;;;;;;;;;;5072358;28;20071;-69
2022/08/12 15:17:13;;;;;;;16.73;14.20;;;;;;;;;;5072458;28;20479;-68
2022/08/12 15:19:39;;;;;;;11.15;6.65;;;;;;;;;;5072617;28;20463;-68
2022/08/12 15:22:05;;;;;;;7.00;5.40;;;;;;;;;;5072555;28;20115;-68
2022/08/12 15:24:32;;;;;;;7.22;4.97;;;;;;;;;;5072433;28;20013;-69
2022/08/12 15:26:58;;;;;;;7.85;4.68;;;;;;;;;;5072662;28;20076;-68
2022/08/12 15:29:27;;;;;;;4.70;3.75;;;;;;;;;;5075827;28;20027;-68
2022/08/12 15:31:53;;;;;;;6.68;5.25;;;;;;;;;;5083155;28;20471;-69
2022/08/12 15:34:19;;;;;;;10.18;6.40;;;;;;;;;;5083728;28;20028;-69
2022/08/12 15:36:45;;;;;;;8.13;5.05;;;;;;;;;;5074596;28;20056;-70
2022/08/12 15:39:11;;;;;;;6.90;6.25;;;;;;;;;;5072360;28;20020;-68
2022/08/12 15:41:37;;;;;;;6.43;5.25;;;;;;;;;;5071784;28;20103;-69
2022/08/12 15:44:03;;;;;;;12.05;6.35;;;;;;;;;;5072549;28;20016;-69
2022/08/12 15:46:31;;;;;;;7.47;5.28;;;;;;;;;;5072291;28;20029;-69
2022/08/12 15:48:57;;;;;;;18.75;10.65;;;;;;;;;;5072104;28;20047;-69
2022/08/12 15:51:41;;;;;;;6.55;5.90;;;;;;;;;;5072693;28;20047;-68
2022/08/12 15:54:12;;;;;;;9.40;8.38;;;;;;;;;;5074458;28;20108;-69
2022/08/12 15:56:40;;;;;;;9.35;6.90;;;;;;;;;;5076107;28;20122;-68
2022/08/12 15:59:07;;;;;;;7.75;5.22;;;;;;;;;;5076481;28;20099;-67
2022/08/12 16:01:33;;;;;;;5.63;4.53;;;;;;;;;;5075889;28;20025;-68
2022/08/12 16:03:59;;;;;;;8.52;6.20;;;;;;;;;;5075727;28;20017;-68
2022/08/12 16:06:26;;;;;;;10.85;6.38;;;;;;;;;;5075931;28;20036;-69
2022/08/12 16:08:52;;;;;;;8.73;5.50;;;;;;;;;;5076002;28;20016;-68
2022/08/12 16:11:20;;;;;;;9.70;5.43;;;;;;;;;;5075807;28;20012;-68
2022/08/12 16:13:46;;;;;;;9.75;7.15;;;;;;;;;;5076199;28;20482;-69
2022/08/12 16:16:15;;;;;;;8.57;6.10;;;;;;;;;;5075441;28;20028;-68
2022/08/12 16:18:43;;;;;;;10.35;7.03;;;;;;;;;;5075643;28;20020;-69
2022/08/12 16:21:16;;;;;;;10.82;6.28;;;;;;;;;;5075666;28;20012;-68
2022/08/12 16:23:47;;;;;;;10.02;6.47;;;;;;;;;;5075802;28;20021;-68
2022/08/12 16:26:13;;;;;;;8.38;7.07;;;;;;;;;;5074350;28;20016;-68
2022/08/12 16:28:39;;;;;;;8.07;5.72;;;;;;;;;;5075649;28;20500;-69
2022/08/12 16:31:05;;;;;;;11.13;7.03;;;;;;;;;;5073515;28;20033;-69
2022/08/12 16:33:35;;;;;;;8.57;6.32;;;;;;;;;;5080250;28;20024;-69